Time;durP1;ratioP1;P1;durP2;ratioP2;P2;SDS_P1;SDS_P2;PMS_P1;PMS_P2;Temp;Humidity;BMP_temperature;BMP_pressure;BME280_temperature;BME280_humidity;BME280_pressure;Samples;Min_cycle;Max_cycle;Signal;HPM_P1;HPM_P2
2022/05/20 00:01:35;;;;;;;6.63;4.90;;;;;;;22.71;59.29;99264.56;6977953;28;20237;-80
2022/05/20 00:04:59;;;;;;;4.70;4.20;;;;;;;22.81;58.89;99278.34;6946329;28;20207;-80
2022/05/20 00:08:21;;;;;;;7.47;4.63;;;;;;;23.20;57.33;99275.94;6997456;28;20246;-80
2022/05/20 00:11:43;;;;;;;6.17;4.63;;;;;;;23.09;56.91;99252.22;6987751;28;20210;-80
2022/05/20 00:15:09;;;;;;;9.50;4.30;;;;;;;23.19;56.88;99260.53;6963996;28;20238;-81
2022/05/20 00:18:31;;;;;;;7.03;4.27;;;;;;;23.24;57.22;99269.59;6971515;28;20234;-81
2022/05/20 00:21:53;;;;;;;6.53;4.50;;;;;;;23.28;56.22;99234.09;6943561;28;20643;-81
2022/05/20 00:29:02;;;;;;;6.73;4.77;;;;;;;23.83;55.06;99251.34;6996649;28;20223;-81
2022/05/20 00:32:28;;;;;;;5.40;4.33;;;;;;;24.10;54.08;99246.34;6988430;28;20203;-81
2022/05/20 00:35:50;;;;;;;6.17;4.43;;;;;;;23.85;54.07;99174.78;6978097;28;20224;-81
2022/05/20 00:39:13;;;;;;;7.37;4.60;;;;;;;24.17;54.61;99243.25;6966046;28;20234;-80
2022/05/20 00:42:36;;;;;;;5.60;4.50;;;;;;;23.55;55.88;99220.84;6969626;28;20718;-82
2022/05/20 00:46:05;;;;;;;6.50;5.50;;;;;;;23.49;56.87;99257.75;6968538;28;20203;-80
2022/05/20 00:49:29;;;;;;;7.97;5.90;;;;;;;23.38;57.47;99245.94;6966823;28;20298;-80
2022/05/20 00:52:57;;;;;;;6.33;5.20;;;;;;;23.19;57.77;99246.78;6978250;28;20725;-81
2022/05/20 00:56:28;;;;;;;5.83;5.33;;;;;;;23.42;57.70;99243.47;6985851;28;20204;-81
2022/05/20 00:59:51;;;;;;;6.17;5.57;;;;;;;23.12;57.80;99236.00;6992106;28;20226;-81
2022/05/20 01:03:31;;;;;;;9.90;6.50;;;;;;;22.88;59.10;99254.16;6986453;28;20223;-81
2022/05/20 01:06:57;;;;;;;5.60;5.10;;;;;;;23.06;58.07;99242.59;6986439;28;20210;-81
2022/05/20 01:10:23;;;;;;;5.57;5.03;;;;;;;23.01;58.17;99255.53;6988671;28;20230;-81
2022/05/20 01:13:49;;;;;;;6.80;4.90;;;;;;;23.08;57.54;99231.34;6985972;28;20300;-81
2022/05/20 01:17:12;;;;;;;9.37;5.97;;;;;;;22.83;58.23;99225.84;6982617;28;20276;-81
2022/05/20 01:24:21;;;;;;;6.50;5.80;;;;;;;22.02;59.95;99169.00;6977607;28;20223;-80
2022/05/20 01:27:43;;;;;;;6.50;5.80;;;;;;;22.23;60.00;99242.13;6968543;28;20234;-80
2022/05/20 01:31:13;;;;;;;6.07;5.47;;;;;;;22.71;58.82;99244.50;6966806;28;20218;-81
2022/05/20 01:34:35;;;;;;;8.60;5.43;;;;;;;22.63;58.33;99193.63;6969443;28;20203;-81
2022/05/20 01:37:58;;;;;;;6.63;5.67;;;;;;;23.00;57.81;99238.19;6971763;28;20289;-80
2022/05/20 01:41:25;;;;;;;6.13;5.33;;;;;;;23.12;57.46;99251.69;6962749;28;20695;-80
2022/05/20 01:45:00;;;;;;;7.07;5.60;;;;;;;23.16;56.78;99239.03;6967172;28;20206;-81
2022/05/20 01:48:27;;;;;;;5.90;5.23;;;;;;;22.72;57.77;99249.72;6974738;28;20253;-80
2022/05/20 01:51:51;;;;;;;5.30;4.80;;;;;;;22.28;59.04;99234.75;6960352;28;20202;-80
2022/05/20 01:55:23;;;;;;;8.13;5.77;;;;;;;21.96;60.14;99230.50;6938791;28;20593;-79
2022/05/20 01:59:01;;;;;;;7.50;6.13;;;;;;;21.73;61.45;99231.75;6991731;28;20266;-80
2022/05/20 02:02:26;;;;;;;6.63;5.63;;;;;;;21.40;61.36;99185.44;6985545;28;20497;-80
2022/05/20 02:05:51;;;;;;;8.33;6.30;;;;;;;21.60;61.83;99239.63;6969767;28;20205;-80
2022/05/20 02:09:21;;;;;;;8.77;5.67;;;;;;;21.87;61.33;99221.13;6971074;28;20223;-79
2022/05/20 02:12:46;;;;;;;6.03;5.43;;;;;;;21.99;59.81;99195.09;6959615;28;20199;-80
2022/05/20 02:16:12;;;;;;;8.07;6.40;;;;;;;21.68;61.08;99193.31;6966920;28;20202;-80
2022/05/20 02:19:40;;;;;;;9.23;6.13;;;;;;;21.51;61.62;99197.28;6949351;28;20223;-81
2022/05/20 02:23:05;;;;;;;7.10;6.50;;;;;;;21.22;63.23;99223.44;6960228;28;20208;-80
2022/05/20 02:26:32;;;;;;;6.77;5.90;;;;;;;21.40;63.20;99236.72;6926504;28;20198;-80
2022/05/20 02:29:57;;;;;;;10.90;6.27;;;;;;;20.94;63.82;99223.75;6926700;28;20239;-80
2022/05/20 02:33:22;;;;;;;13.30;6.97;;;;;;;21.57;61.59;99201.72;6957386;28;20208;-80
2022/05/20 02:36:44;;;;;;;7.57;6.50;;;;;;;21.70;62.02;99237.78;6980826;28;20189;-80
2022/05/20 02:40:08;;;;;;;6.27;5.63;;;;;;;22.09;61.31;99214.38;7001514;28;20214;-81
2022/05/20 02:43:30;;;;;;;9.83;6.20;;;;;;;21.99;60.02;99228.03;6982369;28;20322;-81
2022/05/20 02:46:51;;;;;;;6.87;6.23;;;;;;;21.60;61.16;99240.44;6956030;28;20241;-81
2022/05/20 02:50:14;;;;;;;8.40;6.43;;;;;;;21.44;61.88;99235.13;6955592;28;20368;-81
2022/05/20 02:53:36;;;;;;;7.47;6.00;;;;;;;21.90;60.67;99237.88;6970075;28;20208;-80
2022/05/20 03:04:25;;;;;;;9.67;6.37;;;;;;;21.98;60.04;99250.28;6993917;28;20218;-79
2022/05/20 03:07:48;;;;;;;7.07;5.43;;;;;;;21.98;59.41;99231.91;6981290;28;20222;-79
2022/05/20 03:11:10;;;;;;;13.03;6.93;;;;;;;21.11;61.54;99234.59;6955016;28;20209;-80
2022/05/20 03:14:32;;;;;;;9.57;6.20;;;;;;;21.48;61.41;99228.84;6957676;28;20638;-80
2022/05/20 03:17:53;;;;;;;9.90;6.73;;;;;;;21.13;62.31;99234.06;6956552;28;20231;-79
2022/05/20 03:24:52;;;;;;;7.73;6.43;;;;;;;20.94;62.93;99217.47;6957544;28;20657;-80
2022/05/20 03:28:15;;;;;;;8.40;6.20;;;;;;;21.47;61.44;99207.13;6957211;28;20231;-80
2022/05/20 03:31:39;;;;;;;8.93;6.50;;;;;;;21.76;60.74;99242.22;6958941;28;20221;-80
2022/05/20 03:35:02;;;;;;;9.17;6.83;;;;;;;21.15;61.31;99233.81;6984653;28;20238;-81
2022/05/20 03:38:31;;;;;;;7.60;6.83;;;;;;;21.13;62.32;99245.03;6975875;28;20221;-81
2022/05/20 03:42:01;;;;;;;7.60;6.90;;;;;;;21.24;62.11;99241.28;6974584;28;20227;-81
2022/05/20 03:45:23;;;;;;;7.20;6.50;;;;;;;21.49;61.89;99229.66;6974777;28;20196;-80
2022/05/20 03:48:44;;;;;;;6.83;6.13;;;;;;;21.43;61.18;99236.22;6961111;28;20240;-80
2022/05/20 03:52:07;;;;;;;11.13;7.67;;;;;;;21.60;60.71;99237.69;6956282;28;20234;-80
2022/05/20 03:55:29;;;;;;;8.37;6.10;;;;;;;21.49;60.74;99251.63;6953055;28;20249;-81
2022/05/20 03:58:52;;;;;;;10.77;5.93;;;;;;;21.66;60.07;99225.63;6951999;28;20236;-81
2022/05/20 04:02:14;;;;;;;10.63;7.03;;;;;;;21.31;60.30;99233.66;6952450;28;20231;-80
2022/05/20 04:05:36;;;;;;;7.93;6.47;;;;;;;21.17;61.62;99226.13;6974778;28;20199;-80
2022/05/20 04:08:57;;;;;;;7.47;6.77;;;;;;;21.35;61.46;99248.50;6959635;28;20219;-80
2022/05/20 04:12:25;;;;;;;7.77;6.07;;;;;;;21.61;60.79;99244.00;6962443;28;20204;-80
2022/05/20 04:15:48;;;;;;;10.13;6.43;;;;;;;21.37;61.81;99232.59;6983725;28;20211;-81
2022/05/20 04:19:09;;;;;;;8.00;7.30;;;;;;;21.40;62.25;99239.47;6994069;28;20225;-82
2022/05/20 04:22:33;;;;;;;7.67;6.83;;;;;;;21.58;62.00;99236.28;6961440;28;20645;-79
2022/05/20 04:25:55;;;;;;;7.93;6.67;;;;;;;21.84;61.35;99227.16;6953706;28;20206;-79
2022/05/20 04:29:17;;;;;;;9.83;6.50;;;;;;;22.02;61.02;99204.72;6963044;28;20648;-79
2022/05/20 04:32:40;;;;;;;7.33;6.63;;;;;;;21.80;60.99;99198.56;6973833;28;20204;-80
2022/05/20 04:36:01;;;;;;;7.70;6.97;;;;;;;22.15;61.09;99229.75;6932776;28;20215;-79
2022/05/20 04:39:23;;;;;;;8.47;6.70;;;;;;;21.70;61.48;99217.72;6948875;28;20307;-79
2022/05/20 04:50:05;;;;;;;8.93;6.87;;;;;;;22.10;60.50;99237.16;6953532;28;20222;-79
2022/05/20 04:57:07;;;;;;;9.03;6.67;;;;;;;22.33;61.32;99225.69;6955755;28;20279;-79
2022/05/20 05:00:30;;;;;;;8.20;7.13;;;;;;;22.50;61.40;99231.81;6965524;28;20278;-80
2022/05/20 05:03:52;;;;;;;7.10;6.40;;;;;;;22.92;60.26;99240.66;6961115;28;20603;-82
2022/05/20 05:07:16;;;;;;;9.60;6.30;;;;;;;23.15;59.36;99231.88;6953183;28;20199;-79
2022/05/20 05:10:38;;;;;;;7.27;6.10;;;;;;;22.97;58.69;99218.69;6954394;28;20229;-79
2022/05/20 05:14:00;;;;;;;12.50;5.63;;;;;;;23.62;57.65;99213.97;6950688;28;20204;-79
2022/05/20 05:21:01;;;;;;;6.73;5.80;;;;;;;24.15;56.45;99221.50;6909208;28;20209;-79
2022/05/20 05:24:24;;;;;;;7.77;5.80;;;;;;;24.45;55.77;99235.13;6949616;28;20728;-79
2022/05/20 05:27:46;;;;;;;13.00;6.00;;;;;;;24.48;55.27;99231.78;6966746;28;20294;-79
2022/05/20 05:31:07;;;;;;;8.37;5.73;;;;;;;24.45;54.40;99180.00;6952733;28;20243;-79
2022/05/20 05:34:29;;;;;;;9.23;6.00;;;;;;;24.55;55.38;99232.31;6950191;28;20551;-79
2022/05/20 05:37:51;;;;;;;8.30;6.37;;;;;;;25.39;53.22;99230.06;6950417;28;20709;-79
2022/05/20 05:41:14;;;;;;;6.60;5.53;;;;;;;25.20;53.37;99231.03;6950256;28;20280;-79
2022/05/20 05:44:35;;;;;;;8.10;5.13;;;;;;;25.38;53.21;99222.91;6947925;28;20198;-79
2022/05/20 05:48:00;;;;;;;5.93;5.33;;;;;;;25.82;53.14;99218.00;6958990;28;20261;-80
2022/05/20 05:51:28;;;;;;;6.57;5.20;;;;;;;25.75;52.96;99227.75;6946565;28;20208;-82
2022/05/20 05:54:51;;;;;;;6.67;5.67;;;;;;;25.74;53.09;99213.13;6952195;28;20211;-79
2022/05/20 05:58:17;;;;;;;9.43;5.30;;;;;;;26.33;51.75;99229.28;6978831;28;20216;-82
2022/05/20 06:01:39;;;;;;;7.90;5.67;;;;;;;25.31;51.81;99064.25;6981215;28;20221;-81
2022/05/20 06:05:01;;;;;;;5.93;5.33;;;;;;;26.19;51.03;99159.28;6968011;28;20688;-82
2022/05/20 06:08:23;;;;;;;7.63;5.33;;;;;;;26.85;49.61;99182.88;6961228;28;20211;-82
2022/05/20 06:11:50;;;;;;;7.63;5.60;;;;;;;27.25;49.52;99225.75;6972282;28;20219;-83
2022/05/20 06:15:17;;;;;;;7.97;5.30;;;;;;;27.22;48.83;99193.09;6962946;28;20878;-83
2022/05/20 06:18:38;;;;;;;7.63;5.23;;;;;;;27.20;48.64;99229.38;6939883;28;20226;-83
2022/05/20 06:22:00;;;;;;;6.97;4.30;;;;;;;27.15;48.58;99214.78;6957425;28;20710;-83
2022/05/20 06:25:22;;;;;;;6.87;4.57;;;;;;;26.73;49.07;99215.72;6941616;28;20219;-84
2022/05/20 06:28:44;;;;;;;6.07;4.57;;;;;;;27.34;49.36;99219.19;6973851;28;20222;-82
2022/05/20 06:32:08;;;;;;;7.27;5.03;;;;;;;28.08;46.66;99202.25;6979011;28;20179;-84
2022/05/20 06:42:48;;;;;;;5.63;4.33;;;;;;;29.22;43.51;99197.97;6971294;28;20218;-81
2022/05/20 06:46:11;;;;;;;6.57;4.80;;;;;;;29.21;40.76;99188.00;6984476;28;20231;-82
2022/05/20 06:49:34;;;;;;;6.93;4.37;;;;;;;28.08;44.42;99202.25;6942254;28;20279;-82
2022/05/20 06:52:56;;;;;;;7.67;4.33;;;;;;;28.73;42.82;99202.78;6958723;28;20690;-81
2022/05/20 06:56:17;;;;;;;6.63;4.50;;;;;;;29.26;42.84;99189.84;6962389;28;20741;-81
2022/05/20 06:59:39;;;;;;;6.03;4.30;;;;;;;30.19;40.63;99189.50;6953979;28;20264;-81
2022/05/20 07:03:01;;;;;;;5.97;4.20;;;;;;;30.73;39.20;99198.13;6952870;28;20712;-81
2022/05/20 07:06:25;;;;;;;4.53;4.07;;;;;;;31.00;38.59;99186.66;6953954;28;20620;-81
2022/05/20 07:09:47;;;;;;;6.70;4.20;;;;;;;31.23;38.78;99195.66;6967211;28;20312;-81
2022/05/20 07:13:08;;;;;;;4.77;3.87;;;;;;;31.56;36.67;99186.44;6981967;28;20563;-81
2022/05/20 07:16:31;;;;;;;4.27;3.87;;;;;;;31.81;36.43;99188.34;6960867;28;20234;-81
2022/05/20 07:19:52;;;;;;;5.10;3.67;;;;;;;32.05;37.27;99185.75;6932767;28;20231;-81
2022/05/20 07:23:15;;;;;;;5.57;4.20;;;;;;;32.13;36.88;99192.44;6944282;28;20227;-80
2022/05/20 07:26:37;;;;;;;7.37;3.60;;;;;;;32.38;35.32;99192.31;6952987;28;20207;-80
2022/05/20 07:33:39;;;;;;;4.43;3.80;;;;;;;32.72;35.63;99182.91;6960623;28;20206;-82
2022/05/20 07:37:00;;;;;;;4.67;3.60;;;;;;;32.76;34.37;99156.75;6956041;28;20213;-82
2022/05/20 07:40:23;;;;;;;4.07;3.67;;;;;;;33.36;34.04;99173.00;6952264;28;20226;-81
2022/05/20 07:43:45;;;;;;;5.07;3.30;;;;;;;33.34;33.85;99169.69;6959619;28;20236;-81
2022/05/20 07:47:10;;;;;;;4.67;3.70;;;;;;;33.30;33.62;99168.78;6956814;28;20252;-82
2022/05/20 07:50:36;;;;;;;4.23;3.40;;;;;;;33.35;32.76;99112.63;6951948;28;20224;-82
2022/05/20 07:54:01;;;;;;;3.70;3.40;;;;;;;33.86;33.01;99165.16;6956216;28;20337;-81
2022/05/20 07:57:32;;;;;;;5.63;3.80;;;;;;;31.76;34.27;99162.56;6967596;28;20209;-82
2022/05/20 08:00:59;;;;;;;6.10;3.43;;;;;;;32.29;33.74;99162.81;6948757;28;20182;-82
2022/05/20 08:08:13;;;;;;;5.03;3.97;;;;;;;33.31;34.13;99159.22;6975827;28;20204;-80
2022/05/20 08:11:35;;;;;;;5.60;3.43;;;;;;;33.56;33.44;99164.53;6967188;28;20256;-81
2022/05/20 08:14:58;;;;;;;5.47;3.97;;;;;;;33.73;31.98;99150.31;6960342;28;20218;-81
2022/05/20 08:18:20;;;;;;;6.93;3.60;;;;;;;33.64;32.27;99157.19;6952064;28;20238;-82
2022/05/20 08:21:42;;;;;;;7.23;3.83;;;;;;;33.31;33.79;99118.09;6949824;28;20203;-82
2022/05/20 08:25:05;;;;;;;4.90;3.50;;;;;;;33.36;31.98;99151.41;6951303;28;20234;-81
2022/05/20 08:28:41;;;;;;;6.17;4.00;;;;;;;34.33;32.78;99139.19;6949252;28;20312;-81
2022/05/20 08:32:05;;;;;;;5.90;4.00;;;;;;;34.10;34.27;99109.19;6866800;28;20201;-82
2022/05/20 08:35:27;;;;;;;6.77;4.10;;;;;;;34.08;31.75;99114.34;6868163;28;20208;-81
2022/05/20 08:38:48;;;;;;;4.57;3.63;;;;;;;35.09;31.50;99136.28;6866931;28;20224;-81
2022/05/20 08:42:14;;;;;;;4.53;4.13;;;;;;;35.80;30.27;99115.44;6868237;28;20247;-80
2022/05/20 08:45:35;;;;;;;5.43;3.80;;;;;;;36.11;28.99;99115.38;6867297;28;20197;-81
2022/05/20 08:48:59;;;;;;;5.03;3.73;;;;;;;35.09;29.93;99097.84;6886772;28;20698;-81
2022/05/20 08:52:21;;;;;;;4.50;3.73;;;;;;;35.56;30.13;99109.16;6865077;28;20277;-81
2022/05/20 08:55:43;;;;;;;6.40;3.40;;;;;;;35.89;27.96;99112.44;6866644;28;20193;-80
2022/05/20 08:59:06;;;;;;;5.07;3.50;;;;;;;35.61;27.39;99087.22;6865726;28;20725;-82
2022/05/20 09:02:28;;;;;;;6.07;3.37;;;;;;;35.33;27.73;99096.91;6861726;28;20224;-81
2022/05/20 09:06:03;;;;;;;5.13;3.57;;;;;;;35.80;27.65;99092.97;6870116;28;20205;-83
2022/05/20 09:09:28;;;;;;;6.20;3.80;;;;;;;35.84;26.98;99107.09;6925867;28;20226;-82
2022/05/20 09:12:49;;;;;;;5.10;3.60;;;;;;;35.22;28.33;99107.81;6951546;28;20200;-81
2022/05/20 09:16:13;;;;;;;4.77;3.40;;;;;;;35.62;28.16;99094.50;6957172;28;20199;-81
2022/05/20 09:19:35;;;;;;;3.73;3.37;;;;;;;35.79;27.01;99090.53;6955462;28;20222;-80
2022/05/20 09:23:00;;;;;;;5.83;3.57;;;;;;;35.91;27.76;99084.81;6956393;28;20266;-81
2022/05/20 09:26:24;;;;;;;10.57;4.07;;;;;;;36.20;27.59;99073.09;6966263;28;20207;-82
2022/05/20 09:30:25;;;;;;;4.90;3.50;;;;;;;36.45;26.92;99061.22;6963755;28;20223;-81
2022/05/20 09:33:53;;;;;;;5.37;3.57;;;;;;;36.37;26.35;99070.66;6960866;28;20228;-83
2022/05/20 09:37:20;;;;;;;6.63;3.73;;;;;;;35.53;27.92;99064.97;6965394;28;20233;-81
2022/05/20 09:40:47;;;;;;;6.33;3.90;;;;;;;35.52;27.29;99043.72;6967588;28;20202;-83
2022/05/20 09:44:12;;;;;;;6.47;3.47;;;;;;;35.62;26.32;99045.97;6951442;28;20226;-80
2022/05/20 09:47:37;;;;;;;7.10;3.70;;;;;;;35.09;26.96;99049.38;6949458;28;20207;-79
2022/05/20 09:51:05;;;;;;;6.33;3.80;;;;;;;35.59;26.45;99041.06;6950851;28;20292;-81
2022/05/20 09:54:31;;;;;;;9.27;4.50;;;;;;;35.57;26.22;99021.81;6950695;28;20325;-81
2022/05/20 09:57:56;;;;;;;4.80;3.73;;;;;;;35.77;25.61;99031.13;6937331;28;20223;-80
2022/05/20 10:01:18;;;;;;;6.93;3.87;;;;;;;35.64;25.48;99009.94;6961685;28;20273;-80
2022/05/20 10:04:46;;;;;;;5.17;3.90;;;;;;;35.94;25.93;99027.91;6957786;28;20702;-82
2022/05/20 10:08:15;;;;;;;7.20;4.43;;;;;;;35.78;24.81;99033.56;6976878;28;20712;-79
2022/05/20 10:11:47;;;;;;;7.03;3.50;;;;;;;35.99;25.47;99025.66;6957848;28;20268;-79
2022/05/20 10:15:17;;;;;;;5.73;3.83;;;;;;;36.51;24.84;98992.31;6948676;28;20229;-79
2022/05/20 10:18:44;;;;;;;8.57;4.57;;;;;;;36.06;25.03;99006.16;6979377;28;20276;-79
2022/05/20 10:22:12;;;;;;;44.67;18.37;;;;;;;35.64;25.03;98999.53;6967921;28;20209;-79
2022/05/20 10:25:38;;;;;;;27.37;11.20;;;;;;;35.74;24.28;99001.00;6927079;28;20286;-79
2022/05/20 10:32:49;;;;;;;7.30;3.77;;;;;;;36.31;24.03;98984.28;6959594;28;20232;-79
2022/05/20 10:36:17;;;;;;;6.60;3.70;;;;;;;36.03;24.56;98972.38;6959502;28;20219;-79
2022/05/20 10:40:10;;;;;;;4.27;3.47;;;;;;;36.68;24.49;98975.03;6980758;28;20231;-80
2022/05/20 10:51:50;;;;;;;7.50;3.47;;;;;;;36.85;22.76;98974.53;6974701;28;20203;-79
2022/05/20 10:55:19;;;;;;;5.53;3.10;;;;;;;36.69;22.60;98958.97;6973027;28;20229;-80
2022/05/20 10:59:11;;;;;;;6.13;3.30;;;;;;;36.53;22.39;98956.22;6961755;28;20219;-79
2022/05/20 11:02:50;;;;;;;7.47;2.93;;;;;;;36.75;22.75;98952.66;6946836;28;20211;-79
2022/05/20 11:06:51;;;;;;;6.63;3.47;;;;;;;36.98;21.68;98933.81;6932929;28;20768;-78
2022/05/20 11:10:25;;;;;;;5.00;2.90;;;;;;;36.67;22.99;98919.97;6970579;28;20265;-79
2022/05/20 11:13:58;;;;;;;5.93;3.00;;;;;;;35.82;22.62;98941.03;6968557;28;20206;-79
2022/05/20 11:17:35;;;;;;;7.30;3.23;;;;;;;36.07;22.14;98925.56;6952704;28;20214;-82
2022/05/20 11:21:17;;;;;;;10.63;3.53;;;;;;;35.89;22.69;98932.78;6972968;28;20191;-79
2022/05/20 11:25:31;;;;;;;4.30;2.87;;;;;;;36.99;22.14;98907.31;6974864;28;20227;-81
2022/05/20 11:29:12;;;;;;;4.03;2.90;;;;;;;37.16;21.40;98897.56;6909125;28;20228;-81
2022/05/20 11:32:46;;;;;;;5.37;3.30;;;;;;;37.04;21.70;98864.81;6929614;28;20222;-80
2022/05/20 11:36:30;;;;;;;6.30;3.27;;;;;;;37.42;21.13;98861.03;6975400;28;20195;-81
2022/05/20 11:40:15;;;;;;;7.70;3.70;;;;;;;37.47;20.95;98852.22;6961059;28;20223;-80
2022/05/20 11:43:53;;;;;;;6.27;3.10;;;;;;;37.52;21.58;98827.38;6953390;28;20213;-82
2022/05/20 11:47:32;;;;;;;4.43;3.10;;;;;;;38.19;20.43;98833.91;6976061;28;20212;-81
2022/05/20 11:51:04;;;;;;;4.37;3.00;;;;;;;38.03;20.05;98825.66;6950810;28;20231;-84
2022/05/20 11:54:32;;;;;;;7.70;3.30;;;;;;;37.14;20.39;98805.13;6960132;28;20210;-81
2022/05/20 11:58:01;;;;;;;5.30;2.83;;;;;;;36.79;21.01;98770.03;6962787;28;20222;-82
2022/05/20 12:01:23;;;;;;;4.17;2.87;;;;;;;37.26;21.52;98773.97;6964226;28;20438;-82
2022/05/20 12:04:46;;;;;;;5.70;2.97;;;;;;;37.70;19.63;98783.41;6952991;28;20253;-81
2022/05/20 12:08:08;;;;;;;4.67;2.77;;;;;;;36.79;20.58;98779.25;6972511;28;20221;-82
2022/05/20 12:11:35;;;;;;;8.57;3.20;;;;;;;37.69;20.80;98769.72;6959920;28;20218;-82
2022/05/20 12:15:08;;;;;;;5.73;3.17;;;;;;;37.66;19.12;98776.13;6947930;28;20209;-82
2022/05/20 12:26:28;;;;;;;5.53;3.10;;;;;;;37.10;19.70;98731.16;6929223;28;20212;-82
2022/05/20 12:30:04;;;;;;;4.73;3.13;;;;;;;37.99;18.49;98734.72;6962869;28;20318;-83
2022/05/20 12:33:27;;;;;;;5.27;3.23;;;;;;;38.19;19.85;98709.97;6952353;28;20786;-82
2022/05/20 12:36:49;;;;;;;4.70;2.90;;;;;;;38.34;20.01;98718.16;6950620;28;20296;-80
2022/05/20 12:40:17;;;;;;;5.00;3.03;;;;;;;38.49;19.58;98713.47;6945105;28;20251;-83
2022/05/20 12:43:56;;;;;;;6.07;2.83;;;;;;;38.66;18.40;98713.59;6949302;28;20220;-79
2022/05/20 12:47:28;;;;;;;4.70;3.20;;;;;;;37.55;19.10;98714.06;6958284;28;20596;-80
2022/05/20 12:50:58;;;;;;;6.47;3.07;;;;;;;38.37;18.41;98675.09;6941917;28;20191;-80
2022/05/20 12:54:23;;;;;;;10.60;3.63;;;;;;;39.33;18.28;98689.47;6923313;28;20215;-81
2022/05/20 12:57:52;;;;;;;6.53;2.63;;;;;;;38.67;19.22;98697.50;6931346;28;20235;-80
2022/05/20 13:01:15;;;;;;;8.63;3.43;;;;;;;37.80;19.33;98666.50;6935822;28;20214;-81
2022/05/20 13:04:42;;;;;;;4.67;2.97;;;;;;;37.43;19.94;98669.28;6926014;28;20223;-81
2022/05/20 13:08:09;;;;;;;6.77;3.00;;;;;;;37.34;19.44;98651.91;6925614;28;20235;-81
2022/05/20 13:11:41;;;;;;;9.23;3.07;;;;;;;36.91;20.54;98669.41;6925450;28;20202;-81
2022/05/20 13:15:06;;;;;;;3.93;2.90;;;;;;;37.11;20.13;98648.44;6937341;28;20281;-82
2022/05/20 13:18:29;;;;;;;6.33;3.00;;;;;;;37.30;20.25;98651.06;6950838;28;20400;-82
2022/05/20 13:21:54;;;;;;;6.93;2.80;;;;;;;37.73;20.42;98641.91;6950989;28;20199;-82
2022/05/20 13:25:17;;;;;;;4.77;2.60;;;;;;;38.09;18.99;98612.88;6950972;28;20245;-81
2022/05/20 13:28:39;;;;;;;5.73;3.20;;;;;;;38.42;18.96;98589.44;6949368;28;20239;-82
2022/05/20 13:32:24;;;;;;;6.37;3.27;;;;;;;38.20;18.56;98625.03;6950569;28;20203;-82
2022/05/20 13:35:50;;;;;;;6.50;3.53;;;;;;;36.99;20.27;98606.47;6951065;28;20214;-81
2022/05/20 13:39:16;;;;;;;5.93;3.10;;;;;;;38.04;19.19;98618.91;6950690;28;20695;-82
2022/05/20 13:42:37;;;;;;;5.73;3.10;;;;;;;38.37;20.19;98599.00;6951039;28;20282;-81
2022/05/20 13:49:40;;;;;;;8.83;3.40;;;;;;;36.70;20.03;98575.56;6946753;28;20250;-81
2022/05/20 13:53:04;;;;;;;5.67;3.40;;;;;;;36.61;20.48;98575.81;6924051;28;20247;-81
2022/05/20 13:56:31;;;;;;;6.77;3.07;;;;;;;37.70;20.48;98535.72;6923370;28;20204;-81
2022/05/20 13:59:57;;;;;;;5.43;3.03;;;;;;;37.66;20.24;98581.94;6937568;28;20220;-82
2022/05/20 14:03:25;;;;;;;4.97;2.87;;;;;;;38.25;19.60;98573.97;6948706;28;20222;-81
2022/05/20 14:06:46;;;;;;;8.33;3.20;;;;;;;37.55;19.78;98566.97;6967790;28;20225;-81
2022/05/20 14:10:13;;;;;;;6.03;3.00;;;;;;;37.12;20.51;98573.28;6950010;28;20223;-83
2022/05/20 14:13:37;;;;;;;7.40;3.50;;;;;;;36.91;20.75;98551.31;6957120;28;20227;-84
2022/05/20 14:17:01;;;;;;;5.87;3.03;;;;;;;37.52;19.68;98562.88;6953440;28;20203;-81
2022/05/20 14:20:24;;;;;;;7.27;3.10;;;;;;;37.88;19.92;98541.47;6934253;28;20219;-82
2022/05/20 14:23:47;;;;;;;5.00;2.90;;;;;;;38.87;19.49;98558.69;6932370;28;20226;-82
2022/05/20 14:27:29;;;;;;;7.83;3.27;;;;;;;39.45;19.34;98556.44;6929582;28;20204;-82
2022/05/20 14:30:56;;;;;;;6.17;3.23;;;;;;;38.51;19.56;98522.22;6930552;28;20222;-82
2022/05/20 14:34:23;;;;;;;8.83;3.20;;;;;;;38.13;20.26;98537.69;6930641;28;20211;-82
2022/05/20 14:37:45;;;;;;;5.47;3.03;;;;;;;38.26;20.30;98533.31;6944528;28;20227;-82
2022/05/20 14:41:07;;;;;;;6.00;3.07;;;;;;;38.14;19.88;98544.94;6944613;28;20305;-82
2022/05/20 14:44:28;;;;;;;4.60;2.90;;;;;;;37.82;20.56;98565.56;6931937;28;20855;-82
2022/05/20 14:47:55;;;;;;;5.67;3.47;;;;;;;38.01;20.96;98568.97;6938263;28;20229;-82
2022/05/20 14:51:23;;;;;;;7.50;3.37;;;;;;;36.63;21.38;98562.25;6944943;28;20240;-82
2022/05/20 14:54:47;;;;;;;6.53;3.37;;;;;;;36.53;21.51;98568.50;6946592;28;20223;-83
2022/05/20 14:58:13;;;;;;;7.67;3.20;;;;;;;36.79;22.96;98592.97;6931243;28;20569;-81
2022/05/20 15:01:35;;;;;;;13.53;3.80;;;;;;;35.20;26.03;98569.00;6944636;28;20191;-82
2022/05/20 15:04:58;;;;;;;5.30;3.87;;;;;;;34.30;28.95;98605.09;6929656;28;20354;-82
2022/05/20 15:08:21;;;;;;;6.53;3.83;;;;;;;34.38;29.13;98587.28;6929290;28;20231;-82
2022/05/20 15:11:42;;;;;;;9.00;4.57;;;;;;;33.92;30.88;98613.34;6938976;28;20200;-81
2022/05/20 15:15:06;;;;;;;6.83;3.87;;;;;;;34.10;30.59;98572.63;6958220;28;20215;-81
2022/05/20 15:18:28;;;;;;;10.07;3.90;;;;;;;34.11;29.65;98585.44;6959222;28;20246;-80
2022/05/20 15:21:52;;;;;;;7.70;3.90;;;;;;;34.11;29.69;98571.44;6953944;28;20196;-81
2022/05/20 15:25:14;;;;;;;6.60;3.67;;;;;;;35.06;28.64;98560.34;6959988;28;20226;-81
2022/05/20 15:28:51;;;;;;;5.87;4.13;;;;;;;35.52;27.72;98550.81;6953778;28;20893;-81
2022/05/20 15:35:51;;;;;;;5.97;3.73;;;;;;;35.00;27.49;98601.06;6954340;28;20204;-80
2022/05/20 15:39:18;;;;;;;6.67;3.33;;;;;;;34.69;27.57;98589.16;6969148;28;20249;-81
2022/05/20 15:42:41;;;;;;;6.40;3.43;;;;;;;33.90;29.36;98617.69;6957656;28;20571;-83
2022/05/20 15:46:04;;;;;;;7.73;3.27;;;;;;;33.60;29.82;98652.84;6971779;28;20223;-80
2022/05/20 15:49:26;;;;;;;5.33;3.03;;;;;;;33.85;29.57;98649.53;6932194;28;20228;-83
2022/05/20 15:52:52;;;;;;;4.90;3.50;;;;;;;32.99;30.44;98635.53;6948651;28;20211;-82
2022/05/20 15:56:15;;;;;;;6.47;3.93;;;;;;;33.00;31.22;98659.50;6956153;28;20219;-82
2022/05/20 15:59:38;;;;;;;6.37;3.63;;;;;;;32.78;31.46;98642.47;6952984;28;20237;-81
2022/05/20 16:03:00;;;;;;;5.77;3.63;;;;;;;33.01;30.83;98663.91;6957463;28;20207;-82
2022/05/20 16:06:24;;;;;;;5.90;3.67;;;;;;;32.93;31.25;98661.25;6954566;28;20263;-81
2022/05/20 16:09:48;;;;;;;6.03;3.57;;;;;;;33.18;30.98;98654.41;6947614;28;20365;-81
2022/05/20 16:13:11;;;;;;;8.67;3.80;;;;;;;33.60;30.05;98650.03;6946784;28;20239;-82
2022/05/20 16:16:33;;;;;;;7.50;4.03;;;;;;;33.43;30.12;98626.00;6929303;28;20195;-81
2022/05/20 16:19:54;;;;;;;7.30;4.30;;;;;;;33.21;30.94;98625.75;6950434;28;20229;-83
2022/05/20 16:23:21;;;;;;;10.37;4.30;;;;;;;33.02;31.45;98634.78;6939146;28;20207;-82
2022/05/20 16:26:43;;;;;;;6.90;3.60;;;;;;;33.17;31.21;98647.19;6953528;28;20243;-80
2022/05/20 16:30:09;;;;;;;7.83;3.63;;;;;;;32.62;32.05;98634.00;6951975;28;20249;-80
2022/05/20 16:33:30;;;;;;;8.77;3.60;;;;;;;32.77;31.85;98655.59;6957972;28;20201;-81
2022/05/20 16:36:52;;;;;;;8.93;3.50;;;;;;;32.93;31.86;98650.91;6977989;28;20198;-84
2022/05/20 16:40:16;;;;;;;7.33;3.63;;;;;;;32.45;31.71;98584.00;6953760;28;20223;-82
2022/05/20 16:43:37;;;;;;;7.53;3.53;;;;;;;32.65;32.13;98630.47;6952599;28;20598;-83
2022/05/20 16:47:00;;;;;;;9.93;4.40;;;;;;;32.44;32.33;98610.28;6973215;28;20236;-82
2022/05/20 16:50:22;;;;;;;5.73;3.33;;;;;;;32.67;32.14;98586.25;6953327;28;20717;-83
2022/05/20 16:53:47;;;;;;;9.70;4.30;;;;;;;32.88;31.66;98561.75;6952237;28;20214;-82
2022/05/20 17:04:32;;;;;;;7.43;3.50;;;;;;;33.43;31.47;98538.53;6952025;28;20215;-83
2022/05/20 17:07:53;;;;;;;7.20;4.27;;;;;;;33.24;32.32;98561.56;6956367;28;20231;-82
2022/05/20 17:11:15;;;;;;;6.93;3.67;;;;;;;33.08;33.00;98557.13;6973280;28;20216;-79
2022/05/20 17:14:37;;;;;;;7.40;3.80;;;;;;;32.82;33.67;98551.19;6947250;28;20201;-83
2022/05/20 17:17:58;;;;;;;5.70;3.73;;;;;;;32.50;33.95;98539.09;6941565;28;20215;-82
2022/05/20 17:25:03;;;;;;;7.43;3.77;;;;;;;31.93;35.90;98546.88;6937590;28;20226;-83
2022/05/20 17:28:25;;;;;;;5.10;4.23;;;;;;;31.99;36.44;98542.69;6951887;28;20246;-83
2022/05/20 17:31:46;;;;;;;7.87;4.40;;;;;;;31.85;36.62;98530.25;6952060;28;20213;-81